sensor_id;sensor_type;location;lat;lon;timestamp;pressure;altitude;pressure_sealevel;temperature;humidity
46614;BME280;32338;50.430;6.806;2023-03-13T00:00:23;66103.81;;;6.31;100.00
46614;BME280;32338;50.430;6.806;2023-03-13T00:02:50;66107.75;;;6.35;100.00
46614;BME280;32338;50.430;6.806;2023-03-13T00:05:17;66110.00;;;6.37;100.00
46614;BME280;32338;50.430;6.806;2023-03-13T00:07:43;66117.84;;;6.44;100.00
46614;BME280;32338;50.430;6.806;2023-03-13T00:10:11;66118.06;;;6.47;100.00
46614;BME280;32338;50.430;6.806;2023-03-13T00:12:38;66119.31;;;6.43;100.00
46614;BME280;32338;50.430;6.806;2023-03-13T00:15:06;66122.13;;;6.46;100.00
46614;BME280;32338;50.430;6.806;2023-03-13T00:17:33;66131.47;;;6.52;100.00
46614;BME280;32338;50.430;6.806;2023-03-13T00:19:59;66124.59;;;6.51;100.00
46614;BME280;32338;50.430;6.806;2023-03-13T00:22:26;66130.38;;;6.51;100.00
46614;BME280;32338;50.430;6.806;2023-03-13T00:24:53;66126.44;;;6.47;100.00
46614;BME280;32338;50.430;6.806;2023-03-13T00:27:21;66135.97;;;6.56;100.00
46614;BME280;32338;50.430;6.806;2023-03-13T00:29:48;66114.91;;;6.46;100.00
46614;BME280;32338;50.430;6.806;2023-03-13T00:32:17;66120.84;;;6.49;100.00
46614;BME280;32338;50.430;6.806;2023-03-13T00:34:44;66127.41;;;6.53;100.00
46614;BME280;32338;50.430;6.806;2023-03-13T00:37:10;66123.47;;;6.49;100.00
46614;BME280;32338;50.430;6.806;2023-03-13T00:39:37;66118.22;;;6.42;100.00
46614;BME280;32338;50.430;6.806;2023-03-13T00:42:04;66107.75;;;6.35;100.00
46614;BME280;32338;50.430;6.806;2023-03-13T00:44:32;66112.03;;;6.37;100.00
46614;BME280;32338;50.430;6.806;2023-03-13T00:46:59;66115.97;;;6.40;100.00
46614;BME280;32338;50.430;6.806;2023-03-13T00:49:26;66112.59;;;6.37;100.00
46614;BME280;32338;50.430;6.806;2023-03-13T00:51:53;66104.94;;;6.32;100.00
46614;BME280;32338;50.430;6.806;2023-03-13T00:54:19;66107.75;;;6.35;100.00
46614;BME280;32338;50.430;6.806;2023-03-13T00:56:46;66103.28;;;6.31;100.00
46614;BME280;32338;50.430;6.806;2023-03-13T00:59:13;66107.56;;;6.32;100.00
46614;BME280;32338;50.430;6.806;2023-03-13T01:01:42;66116.53;;;6.41;100.00
46614;BME280;32338;50.430;6.806;2023-03-13T01:04:10;66112.59;;;6.37;100.00
46614;BME280;32338;50.430;6.806;2023-03-13T01:06:38;66117.84;;;6.44;100.00
46614;BME280;32338;50.430;6.806;2023-03-13T01:09:08;66118.97;;;6.45;100.00
46614;BME280;32338;50.430;6.806;2023-03-13T01:11:37;66118.97;;;6.45;100.00
46614;BME280;32338;50.430;6.806;2023-03-13T01:14:07;66119.19;;;6.48;100.00
46614;BME280;32338;50.430;6.806;2023-03-13T01:16:34;66124.03;;;6.50;100.00
46614;BME280;32338;50.430;6.806;2023-03-13T01:19:05;66127.97;;;6.54;100.00
46614;BME280;32338;50.430;6.806;2023-03-13T01:21:32;66125.72;;;6.52;100.00
46614;BME280;32338;50.430;6.806;2023-03-13T01:23:59;66126.63;;;6.50;100.00
46614;BME280;32338;50.430;6.806;2023-03-13T01:26:26;66131.47;;;6.52;100.00
46614;BME280;32338;50.430;6.806;2023-03-13T01:28:53;66124.97;;;6.48;100.00
46614;BME280;32338;50.430;6.806;2023-03-13T01:31:21;66115.09;;;6.49;100.00
46614;BME280;32338;50.430;6.806;2023-03-13T01:33:53;66131.13;;;6.54;100.00
46614;BME280;32338;50.430;6.806;2023-03-13T01:36:22;66127.41;;;6.53;100.00
46614;BME280;32338;50.430;6.806;2023-03-13T01:38:49;66124.03;;;6.50;100.00
46614;BME280;32338;50.430;6.806;2023-03-13T01:41:17;66122.34;;;6.48;100.00
46614;BME280;32338;50.430;6.806;2023-03-13T01:43:45;66113.22;;;6.45;100.00
46614;BME280;32338;50.430;6.806;2023-03-13T01:46:13;66128.13;;;6.49;100.00
46614;BME280;32338;50.430;6.806;2023-03-13T01:48:45;66112.81;;;6.40;100.00
46614;BME280;32338;50.430;6.806;2023-03-13T01:51:17;66119.31;;;6.43;100.00
46614;BME280;32338;50.430;6.806;2023-03-13T01:53:49;66103.81;;;6.31;100.00
46614;BME280;32338;50.430;6.806;2023-03-13T01:56:20;66107.75;;;6.35;100.00
46614;BME280;32338;50.430;6.806;2023-03-13T01:58:49;66115.78;;;6.38;100.00
46614;BME280;32338;50.430;6.806;2023-03-13T02:01:18;66110.72;;;6.33;100.00
46614;BME280;32338;50.430;6.806;2023-03-13T02:03:47;66107.97;;;6.38;100.00
46614;BME280;32338;50.430;6.806;2023-03-13T02:06:15;66103.81;;;6.31;100.00
46614;BME280;32338;50.430;6.806;2023-03-13T02:08:47;66109.63;;;6.39;100.00
46614;BME280;32338;50.430;6.806;2023-03-13T02:11:22;66107.75;;;6.35;100.00
46614;BME280;32338;50.430;6.806;2023-03-13T02:13:52;66107.56;;;6.32;100.00
46614;BME280;32338;50.430;6.806;2023-03-13T02:16:20;66107.19;;;6.35;100.00
46614;BME280;32338;50.430;6.806;2023-03-13T02:18:47;66106.63;;;6.34;100.00
46614;BME280;32338;50.430;6.806;2023-03-13T02:21:21;66103.81;;;6.31;100.00
46614;BME280;32338;50.430;6.806;2023-03-13T02:23:57;66108.88;;;6.36;100.00
46614;BME280;32338;50.430;6.806;2023-03-13T02:26:26;66106.63;;;6.34;100.00
46614;BME280;32338;50.430;6.806;2023-03-13T02:28:53;66106.63;;;6.34;100.00
46614;BME280;32338;50.430;6.806;2023-03-13T02:31:20;66103.63;;;6.29;100.00
46614;BME280;32338;50.430;6.806;2023-03-13T02:33:46;66110.00;;;6.37;100.00
46614;BME280;32338;50.430;6.806;2023-03-13T02:36:15;66104.03;;;6.34;100.00
46614;BME280;32338;50.430;6.806;2023-03-13T02:38:45;66113.72;;;6.38;100.00
46614;BME280;32338;50.430;6.806;2023-03-13T02:41:14;66112.97;;;6.35;100.00
46614;BME280;32338;50.430;6.806;2023-03-13T02:43:43;66101.56;;;6.29;100.00
46614;BME280;32338;50.430;6.806;2023-03-13T02:46:11;66097.84;;;6.28;100.00
46614;BME280;32338;50.430;6.806;2023-03-13T02:48:39;66096.16;;;6.27;100.00
46614;BME280;32338;50.430;6.806;2023-03-13T02:51:12;66107.56;;;6.32;100.00
46614;BME280;32338;50.430;6.806;2023-03-13T02:53:41;66111.47;;;6.36;100.00
46614;BME280;32338;50.430;6.806;2023-03-13T02:56:10;66108.88;;;6.36;100.00
46614;BME280;32338;50.430;6.806;2023-03-13T02:58:39;66108.09;;;6.33;100.00
46614;BME280;32338;50.430;6.806;2023-03-13T03:01:07;66113.16;;;6.38;100.00
46614;BME280;32338;50.430;6.806;2023-03-13T03:03:34;66109.44;;;6.37;100.00
46614;BME280;32338;50.430;6.806;2023-03-13T03:06:02;66114.13;;;6.43;100.00
46614;BME280;32338;50.430;6.806;2023-03-13T03:08:29;66110.75;;;6.40;100.00
46614;BME280;32338;50.430;6.806;2023-03-13T03:10:56;66124.97;;;6.48;100.00
46614;BME280;32338;50.430;6.806;2023-03-13T03:13:22;66122.72;;;6.46;100.00
46614;BME280;32338;50.430;6.806;2023-03-13T03:15:49;66124.59;;;6.51;100.00
46614;BME280;32338;50.430;6.806;2023-03-13T03:18:18;66130.19;;;6.56;100.00
46614;BME280;32338;50.430;6.806;2023-03-13T03:20:44;66132.44;;;6.58;100.00
46614;BME280;32338;50.430;6.806;2023-03-13T03:23:11;66125.50;;;6.49;100.00
46614;BME280;32338;50.430;6.806;2023-03-13T03:25:38;66133.94;;;6.57;100.00
46614;BME280;32338;50.430;6.806;2023-03-13T03:28:04;66125.00;;;6.56;100.00
46614;BME280;32338;50.430;6.806;2023-03-13T03:30:31;66128.72;;;6.57;100.00
46614;BME280;32338;50.430;6.806;2023-03-13T03:32:58;66136.59;;;6.64;100.00
46614;BME280;32338;50.430;6.806;2023-03-13T03:35:26;66135.81;;;6.61;100.00
46614;BME280;32338;50.430;6.806;2023-03-13T03:37:53;66141.59;;;6.61;100.00
46614;BME280;32338;50.430;6.806;2023-03-13T03:40:20;66140.31;;;6.65;100.00
46614;BME280;32338;50.430;6.806;2023-03-13T03:42:46;66138.41;;;6.61;100.00
46614;BME280;32338;50.430;6.806;2023-03-13T03:45:13;66153.94;;;6.73;100.00
46614;BME280;32338;50.430;6.806;2023-03-13T03:47:40;66154.34;;;6.78;100.00
46614;BME280;32338;50.430;6.806;2023-03-13T03:50:08;66165.38;;;6.86;100.00
46614;BME280;32338;50.430;6.806;2023-03-13T03:52:37;66168.19;;;6.88;100.00
46614;BME280;32338;50.430;6.806;2023-03-13T03:55:04;66163.28;;;6.79;100.00
46614;BME280;32338;50.430;6.806;2023-03-13T03:57:31;66159.03;;;6.85;100.00
46614;BME280;32338;50.430;6.806;2023-03-13T03:59:58;66157.16;;;6.80;100.00
46614;BME280;32338;50.430;6.806;2023-03-13T04:02:25;66162.00;;;6.82;100.00
46614;BME280;32338;50.430;6.806;2023-03-13T04:04:51;66163.13;;;6.84;100.00
46614;BME280;32338;50.430;6.806;2023-03-13T04:07:18;66162.56;;;6.83;100.00
46614;BME280;32338;50.430;6.806;2023-03-13T04:09:46;66168.38;;;6.91;100.00
46614;BME280;32338;50.430;6.806;2023-03-13T04:12:14;66174.56;;;6.96;100.00
46614;BME280;32338;50.430;6.806;2023-03-13T04:14:41;66167.81;;;6.90;100.00
46614;BME280;32338;50.430;6.806;2023-03-13T04:17:08;66170.28;;;6.95;100.00
46614;BME280;32338;50.430;6.806;2023-03-13T04:19:35;66167.47;;;6.92;100.00
46614;BME280;32338;50.430;6.806;2023-03-13T04:22:01;66183.16;;;7.00;100.00
46614;BME280;32338;50.430;6.806;2023-03-13T04:24:28;66179.06;;;7.01;100.00
46614;BME280;32338;50.430;6.806;2023-03-13T04:26:56;66191.06;;;7.14;100.00
46614;BME280;32338;50.430;6.806;2023-03-13T04:29:23;66190.84;;;7.11;100.00
46614;BME280;32338;50.430;6.806;2023-03-13T04:31:50;66191.22;;;7.09;100.00
46614;BME280;32338;50.430;6.806;2023-03-13T04:34:17;66197.59;;;7.18;100.00
46614;BME280;32338;50.430;6.806;2023-03-13T04:36:43;66189.19;;;7.10;100.00
46614;BME280;32338;50.430;6.806;2023-03-13T04:39:10;66192.75;;;7.16;100.00
46614;BME280;32338;50.430;6.806;2023-03-13T04:41:37;66195.50;;;7.11;100.00
46614;BME280;32338;50.430;6.806;2023-03-13T04:44:05;66191.41;;;7.12;100.00
46614;BME280;32338;50.430;6.806;2023-03-13T04:46:31;66202.44;;;7.20;100.00
46614;BME280;32338;50.430;6.806;2023-03-13T04:48:58;66209.75;;;7.26;100.00
46614;BME280;32338;50.430;6.806;2023-03-13T04:51:25;66216.50;;;7.33;100.00
46614;BME280;32338;50.430;6.806;2023-03-13T04:53:52;66216.91;;;7.38;100.00
46614;BME280;32338;50.430;6.806;2023-03-13T04:56:22;66225.47;;;7.41;100.00
46614;BME280;32338;50.430;6.806;2023-03-13T04:58:49;66235.97;;;7.48;100.00
46614;BME280;32338;50.430;6.806;2023-03-13T05:01:17;66225.69;;;7.43;100.00
46614;BME280;32338;50.430;6.806;2023-03-13T05:03:44;66236.94;;;7.54;100.00
46614;BME280;32338;50.430;6.806;2023-03-13T05:06:12;66238.41;;;7.53;100.00
46614;BME280;32338;50.430;6.806;2023-03-13T05:08:39;66242.91;;;7.57;100.00
46614;BME280;32338;50.430;6.806;2023-03-13T05:11:05;66241.56;;;7.53;100.00
46614;BME280;32338;50.430;6.806;2023-03-13T05:13:32;66253.97;;;7.72;100.00
46614;BME280;32338;50.430;6.806;2023-03-13T05:15:59;66259.75;;;7.72;100.00
46614;BME280;32338;50.430;6.806;2023-03-13T05:18:27;66260.31;;;7.73;100.00
46614;BME280;32338;50.430;6.806;2023-03-13T05:20:54;66267.81;;;7.82;100.00
46614;BME280;32338;50.430;6.806;2023-03-13T05:23:21;66262.22;;;7.77;100.00
46614;BME280;32338;50.430;6.806;2023-03-13T05:25:48;66260.31;;;7.73;100.00
46614;BME280;32338;50.430;6.806;2023-03-13T05:28:15;66262.78;;;7.77;100.00
46614;BME280;32338;50.430;6.806;2023-03-13T05:30:41;66264.81;;;7.77;100.00
46614;BME280;32338;50.430;6.806;2023-03-13T05:33:08;66267.28;;;7.82;100.00
46614;BME280;32338;50.430;6.806;2023-03-13T05:35:36;66275.16;;;7.89;100.00
46614;BME280;32338;50.430;6.806;2023-03-13T05:38:03;66280.00;;;7.91;100.00
46614;BME280;32338;50.430;6.806;2023-03-13T05:40:29;66280.56;;;7.91;100.00
46614;BME280;32338;50.430;6.806;2023-03-13T05:42:56;66294.06;;;8.04;100.00
46614;BME280;32338;50.430;6.806;2023-03-13T05:45:25;66287.72;;;8.03;100.00
46614;BME280;32338;50.430;6.806;2023-03-13T05:47:52;66297.78;;;8.05;100.00
46614;BME280;32338;50.430;6.806;2023-03-13T05:50:18;66293.13;;;8.05;100.00
46614;BME280;32338;50.430;6.806;2023-03-13T05:52:47;66302.69;;;8.14;100.00
46614;BME280;32338;50.430;6.806;2023-03-13T05:55:13;66319.72;;;8.25;100.00
46614;BME280;32338;50.430;6.806;2023-03-13T05:57:43;66320.28;;;8.25;100.00
46614;BME280;32338;50.430;6.806;2023-03-13T06:00:11;66313.72;;;8.22;100.00
46614;BME280;32338;50.430;6.806;2023-03-13T06:02:38;66322.72;;;8.30;100.00
46614;BME280;32338;50.430;6.806;2023-03-13T06:05:05;66335.09;;;8.41;100.00
46614;BME280;32338;50.430;6.806;2023-03-13T06:07:32;66331.72;;;8.38;100.00
46614;BME280;32338;50.430;6.806;2023-03-13T06:10:00;66330.59;;;8.37;100.00
46614;BME280;32338;50.430;6.806;2023-03-13T06:12:27;66329.84;;;8.34;100.00
46614;BME280;32338;50.430;6.806;2023-03-13T06:14:54;66324.63;;;8.34;100.00
46614;BME280;32338;50.430;6.806;2023-03-13T06:17:20;66322.00;;;8.34;100.00
46614;BME280;32338;50.430;6.806;2023-03-13T06:19:47;66338.81;;;8.42;100.00
46614;BME280;32338;50.430;6.806;2023-03-13T06:22:15;66336.44;;;8.45;100.00
46614;BME280;32338;50.430;6.806;2023-03-13T06:24:42;66348.63;;;8.54;100.00
46614;BME280;32338;50.430;6.806;2023-03-13T06:27:12;66340.75;;;8.47;100.00
46614;BME280;32338;50.430;6.806;2023-03-13T06:29:39;66354.25;;;8.59;100.00
46614;BME280;32338;50.430;6.806;2023-03-13T06:32:06;66345.09;;;8.55;100.00
46614;BME280;32338;50.430;6.806;2023-03-13T06:34:32;66359.50;;;8.66;100.00
46614;BME280;32338;50.430;6.806;2023-03-13T06:36:59;66354.25;;;8.59;100.00
46614;BME280;32338;50.430;6.806;2023-03-13T06:39:26;66357.25;;;8.64;100.00
46614;BME280;32338;50.430;6.806;2023-03-13T06:41:53;66359.50;;;8.66;100.00
46614;BME280;32338;50.430;6.806;2023-03-13T06:44:21;66374.91;;;8.83;100.00
46614;BME280;32338;50.430;6.806;2023-03-13T06:46:47;66374.47;;;8.77;100.00
46614;BME280;32338;50.430;6.806;2023-03-13T06:49:14;66370.38;;;8.79;100.00
46614;BME280;32338;50.430;6.806;2023-03-13T06:51:41;66380.88;;;8.86;100.00
46614;BME280;32338;50.430;6.806;2023-03-13T06:54:07;66380.69;;;8.83;100.00
46614;BME280;32338;50.430;6.806;2023-03-13T06:56:34;66384.66;;;8.94;100.00
46614;BME280;32338;50.430;6.806;2023-03-13T06:59:01;66379.00;;;8.82;100.00
46614;BME280;32338;50.430;6.806;2023-03-13T07:01:29;66390.44;;;8.95;100.00
46614;BME280;32338;50.430;6.806;2023-03-13T07:03:55;66387.63;;;8.92;100.00
46614;BME280;32338;50.430;6.806;2023-03-13T07:06:22;66401.34;;;9.07;100.00
46614;BME280;32338;50.430;6.806;2023-03-13T07:08:49;66409.72;;;9.07;100.00
46614;BME280;32338;50.430;6.806;2023-03-13T07:11:15;66403.41;;;9.06;100.00
46614;BME280;32338;50.430;6.806;2023-03-13T07:13:42;66405.06;;;9.08;100.00
46614;BME280;32338;50.430;6.806;2023-03-13T07:16:10;66399.25;;;9.00;100.00
46614;BME280;32338;50.430;6.806;2023-03-13T07:18:39;66402.63;;;9.03;100.00
46614;BME280;32338;50.430;6.806;2023-03-13T07:21:08;66400.00;;;9.03;100.00
46614;BME280;32338;50.430;6.806;2023-03-13T07:23:35;66411.63;;;9.12;100.00
46614;BME280;32338;50.430;6.806;2023-03-13T07:26:04;66405.06;;;9.08;100.00
46614;BME280;32338;50.430;6.806;2023-03-13T07:28:32;66399.44;;;9.03;100.00
46614;BME280;32338;50.430;6.806;2023-03-13T07:31:03;66405.63;;;9.08;100.00
46614;BME280;32338;50.430;6.806;2023-03-13T07:33:30;66426.25;;;9.25;100.00
46614;BME280;32338;50.430;6.806;2023-03-13T07:35:58;66433.94;;;9.30;100.00
46614;BME280;32338;50.430;6.806;2023-03-13T07:38:25;66426.25;;;9.25;100.00
46614;BME280;32338;50.430;6.806;2023-03-13T07:40:53;66445.75;;;9.40;100.00
46614;BME280;32338;50.430;6.806;2023-03-13T07:43:20;66449.91;;;9.47;100.00
46614;BME280;32338;50.430;6.806;2023-03-13T07:45:52;66449.91;;;9.47;100.00
46614;BME280;32338;50.430;6.806;2023-03-13T07:48:19;66459.28;;;9.53;100.00
46614;BME280;32338;50.430;6.806;2023-03-13T07:50:47;66456.28;;;9.55;100.00
46614;BME280;32338;50.430;6.806;2023-03-13T07:53:15;66463.81;;;9.64;100.00
46614;BME280;32338;50.430;6.806;2023-03-13T07:55:55;66451.44;;;9.53;100.00
46614;BME280;32338;50.430;6.806;2023-03-13T07:58:23;66462.09;;;9.63;100.00
46614;BME280;32338;50.430;6.806;2023-03-13T08:00:50;66469.44;;;9.69;100.00
46614;BME280;32338;50.430;6.806;2023-03-13T08:03:17;66477.69;;;9.74;100.00
46614;BME280;32338;50.430;6.806;2023-03-13T08:05:44;66466.44;;;9.64;100.00
46614;BME280;32338;50.430;6.806;2023-03-13T08:08:10;66462.69;;;9.63;100.00
46614;BME280;32338;50.430;6.806;2023-03-13T08:10:38;66461.34;;;9.60;100.00
46614;BME280;32338;50.430;6.806;2023-03-13T08:13:05;66469.78;;;9.67;100.00
46614;BME280;32338;50.430;6.806;2023-03-13T08:15:32;66462.47;;;9.61;100.00
46614;BME280;32338;50.430;6.806;2023-03-13T08:17:58;66462.69;;;9.63;100.00
46614;BME280;32338;50.430;6.806;2023-03-13T08:20:25;66466.78;;;9.62;100.00
46614;BME280;32338;50.430;6.806;2023-03-13T08:22:54;66466.22;;;9.62;100.00
46614;BME280;32338;50.430;6.806;2023-03-13T08:25:21;66462.28;;;9.58;100.00
46614;BME280;32338;50.430;6.806;2023-03-13T08:27:49;66465.66;;;9.61;100.00
46614;BME280;32338;50.430;6.806;2023-03-13T08:30:16;66467.91;;;9.63;100.00
46614;BME280;32338;50.430;6.806;2023-03-13T08:32:43;66474.09;;;9.69;100.00
46614;BME280;32338;50.430;6.806;2023-03-13T08:35:10;66476.19;;;9.76;100.00
46614;BME280;32338;50.430;6.806;2023-03-13T08:37:36;66470.91;;;9.68;100.00
46614;BME280;32338;50.430;6.806;2023-03-13T08:40:04;66458.53;;;9.57;100.00
46614;BME280;32338;50.430;6.806;2023-03-13T08:42:36;66460.22;;;9.58;100.00
46614;BME280;32338;50.430;6.806;2023-03-13T08:45:05;66464.16;;;9.62;100.00
46614;BME280;32338;50.430;6.806;2023-03-13T08:47:32;66456.66;;;9.53;100.00
46614;BME280;32338;50.430;6.806;2023-03-13T08:49:59;66452.53;;;9.47;100.00
46614;BME280;32338;50.430;6.806;2023-03-13T08:52:26;66447.84;;;9.47;100.00
46614;BME280;32338;50.430;6.806;2023-03-13T08:54:53;66451.75;;;9.44;100.00
46614;BME280;32338;50.430;6.806;2023-03-13T08:57:19;66435.81;;;9.34;100.00
46614;BME280;32338;50.430;6.806;2023-03-13T08:59:46;66427.78;;;9.31;100.00
46614;BME280;32338;50.430;6.806;2023-03-13T09:02:15;66422.72;;;9.27;100.00
46614;BME280;32338;50.430;6.806;2023-03-13T09:04:44;66437.16;;;9.37;100.00
46614;BME280;32338;50.430;6.806;2023-03-13T09:07:11;66430.38;;;9.31;100.00
46614;BME280;32338;50.430;6.806;2023-03-13T09:09:38;66422.53;;;9.24;100.00
46614;BME280;32338;50.430;6.806;2023-03-13T09:12:05;66427.38;;;9.26;100.00
46614;BME280;32338;50.430;6.806;2023-03-13T09:14:32;66416.53;;;9.21;100.00
46614;BME280;32338;50.430;6.806;2023-03-13T09:16:59;66418.00;;;9.20;100.00
46614;BME280;32338;50.430;6.806;2023-03-13T09:19:27;66418.00;;;9.20;100.00
46614;BME280;32338;50.430;6.806;2023-03-13T09:21:54;66415.56;;;9.15;100.00
46614;BME280;32338;50.430;6.806;2023-03-13T09:24:21;66425.69;;;9.24;100.00
46614;BME280;32338;50.430;6.806;2023-03-13T09:26:48;66414.63;;;9.17;100.00
46614;BME280;32338;50.430;6.806;2023-03-13T09:29:14;66407.88;;;9.11;100.00
46614;BME280;32338;50.430;6.806;2023-03-13T09:31:41;66429.84;;;9.31;100.00
46614;BME280;32338;50.430;6.806;2023-03-13T09:34:08;66421.41;;;9.23;100.00
46614;BME280;32338;50.430;6.806;2023-03-13T09:36:36;66427.03;;;9.28;100.00
46614;BME280;32338;50.430;6.806;2023-03-13T09:39:03;66424.22;;;9.25;100.00
46614;BME280;32338;50.430;6.806;2023-03-13T09:41:33;66429.28;;;9.30;100.00
46614;BME280;32338;50.430;6.806;2023-03-13T09:44:06;66428.34;;;9.32;100.00
46614;BME280;32338;50.430;6.806;2023-03-13T09:46:41;66431.53;;;9.32;100.00
46614;BME280;32338;50.430;6.806;2023-03-13T09:49:14;66444.47;;;9.44;100.00
46614;BME280;32338;50.430;6.806;2023-03-13T09:51:48;66468.09;;;9.66;100.00
46614;BME280;32338;50.430;6.806;2023-03-13T09:54:22;66489.50;;;9.85;100.00
46614;BME280;32338;50.430;6.806;2023-03-13T09:56:53;66481.44;;;9.76;100.00
46614;BME280;32338;50.430;6.806;2023-03-13T09:59:28;66488.19;;;9.82;100.00
46614;BME280;32338;50.430;6.806;2023-03-13T10:01:57;66491.75;;;9.87;100.00
46614;BME280;32338;50.430;6.806;2023-03-13T10:04:29;66497.75;;;9.90;100.00
46614;BME280;32338;50.430;6.806;2023-03-13T10:06:59;66497.38;;;9.93;100.00
46614;BME280;32338;50.430;6.806;2023-03-13T10:09:30;66516.91;;;10.08;100.00
46614;BME280;32338;50.430;6.806;2023-03-13T10:12:05;66515.78;;;10.07;100.00
46614;BME280;32338;50.430;6.806;2023-03-13T10:14:42;66507.72;;;10.04;100.00
46614;BME280;32338;50.430;6.806;2023-03-13T10:17:19;66510.91;;;10.05;100.00
46614;BME280;32338;50.430;6.806;2023-03-13T10:19:55;66519.34;;;10.13;100.00
46614;BME280;32338;50.430;6.806;2023-03-13T10:22:26;66523.47;;;10.19;100.00
46614;BME280;32338;50.430;6.806;2023-03-13T10:24:57;66541.88;;;10.33;100.00
46614;BME280;32338;50.430;6.806;2023-03-13T10:27:25;66551.13;;;10.44;100.00
46614;BME280;32338;50.430;6.806;2023-03-13T10:29:52;66558.78;;;10.49;100.00
46614;BME280;32338;50.430;6.806;2023-03-13T10:32:19;66549.59;;;10.38;100.00
46614;BME280;32338;50.430;6.806;2023-03-13T10:34:54;66540.38;;;10.34;100.00
46614;BME280;32338;50.430;6.806;2023-03-13T10:37:24;66540.94;;;10.35;100.00
46614;BME280;32338;50.430;6.806;2023-03-13T10:39:52;66543.00;;;10.34;100.00
46614;BME280;32338;50.430;6.806;2023-03-13T10:42:26;66546.59;;;10.40;100.00
46614;BME280;32338;50.430;6.806;2023-03-13T10:45:00;66546.75;;;10.35;100.00
46614;BME280;32338;50.430;6.806;2023-03-13T10:47:32;66550.16;;;10.38;100.00
46614;BME280;32338;50.430;6.806;2023-03-13T10:50:01;66562.34;;;10.47;100.00
46614;BME280;32338;50.430;6.806;2023-03-13T10:52:40;66571.97;;;10.63;100.00
46614;BME280;32338;50.430;6.806;2023-03-13T10:55:10;66569.13;;;10.53;100.00
46614;BME280;32338;50.430;6.806;2023-03-13T10:57:37;66553.94;;;10.47;100.00
46614;BME280;32338;50.430;6.806;2023-03-13T11:00:27;66553.34;;;10.46;100.00
46614;BME280;32338;50.430;6.806;2023-03-13T11:02:54;66552.41;;;10.41;100.00
46614;BME280;32338;50.430;6.806;2023-03-13T11:05:32;66556.56;;;10.47;100.00
46614;BME280;32338;50.430;6.806;2023-03-13T11:08:17;66563.88;;;10.53;100.00
46614;BME280;32338;50.430;6.806;2023-03-13T11:10:54;66565.00;;;10.54;100.00
46614;BME280;32338;50.430;6.806;2023-03-13T11:13:34;66574.56;;;10.63;100.00
46614;BME280;32338;50.430;6.806;2023-03-13T11:16:13;66576.47;;;10.67;100.00
46614;BME280;32338;50.430;6.806;2023-03-13T11:18:53;66601.63;;;10.88;100.00
46614;BME280;32338;50.430;6.806;2023-03-13T11:21:32;66590.91;;;10.78;100.00
46614;BME280;32338;50.430;6.806;2023-03-13T11:24:07;66579.66;;;10.68;100.00
46614;BME280;32338;50.430;6.806;2023-03-13T11:26:41;66586.22;;;10.71;100.00
46614;BME280;32338;50.430;6.806;2023-03-13T11:29:18;66592.41;;;10.77;100.00
46614;BME280;32338;50.430;6.806;2023-03-13T11:31:54;66589.41;;;10.72;100.00
46614;BME280;32338;50.430;6.806;2023-03-13T11:34:26;66596.72;;;10.79;100.00
46614;BME280;32338;50.430;6.806;2023-03-13T11:36:59;66590.16;;;10.75;100.00
46614;BME280;32338;50.430;6.806;2023-03-13T11:39:46;66605.38;;;10.89;100.00
46614;BME280;32338;50.430;6.806;2023-03-13T11:42:43;66587.91;;;10.73;100.00
46614;BME280;32338;50.430;6.806;2023-03-13T11:45:26;66585.84;;;10.74;100.00
46614;BME280;32338;50.430;6.806;2023-03-13T11:47:59;66582.47;;;10.70;100.00
46614;BME280;32338;50.430;6.806;2023-03-13T11:50:36;66575.91;;;10.67;100.00
46614;BME280;32338;50.430;6.806;2023-03-13T11:53:18;66572.50;;;10.64;100.00
46614;BME280;32338;50.430;6.806;2023-03-13T11:55:58;66563.88;;;10.53;100.00
46614;BME280;32338;50.430;6.806;2023-03-13T11:58:54;66565.75;;;10.58;100.00
46614;BME280;32338;50.430;6.806;2023-03-13T12:01:27;66573.25;;;10.60;100.00
46614;BME280;32338;50.430;6.806;2023-03-13T12:03:59;66568.38;;;10.58;100.00
46614;BME280;32338;50.430;6.806;2023-03-13T12:06:31;66573.06;;;10.57;100.00
46614;BME280;32338;50.430;6.806;2023-03-13T12:09:05;66570.63;;;10.60;100.00
46614;BME280;32338;50.430;6.806;2023-03-13T12:11:39;66580.97;;;10.64;100.00
46614;BME280;32338;50.430;6.806;2023-03-13T12:14:12;66578.34;;;10.64;100.00
46614;BME280;32338;50.430;6.806;2023-03-13T12:16:42;66580.97;;;10.64;100.00
46614;BME280;32338;50.430;6.806;2023-03-13T12:19:14;66573.44;;;10.62;100.00
46614;BME280;32338;50.430;6.806;2023-03-13T12:21:46;66568.19;;;10.55;100.00
46614;BME280;32338;50.430;6.806;2023-03-13T12:24:20;66565.56;;;10.55;100.00
46614;BME280;32338;50.430;6.806;2023-03-13T12:26:52;66562.53;;;10.50;100.00
46614;BME280;32338;50.430;6.806;2023-03-13T12:29:36;66559.72;;;10.47;100.00
46614;BME280;32338;50.430;6.806;2023-03-13T12:32:12;66562.00;;;10.49;100.00
46614;BME280;32338;50.430;6.806;2023-03-13T12:34:50;66559.00;;;10.51;100.00
46614;BME280;32338;50.430;6.806;2023-03-13T12:37:22;66555.97;;;10.46;100.00
46614;BME280;32338;50.430;6.806;2023-03-13T12:39:56;66556.91;;;10.45;100.00
46614;BME280;32338;50.430;6.806;2023-03-13T12:42:38;66556.56;;;10.47;100.00
46614;BME280;32338;50.430;6.806;2023-03-13T12:45:12;66547.88;;;10.36;100.00
46614;BME280;32338;50.430;6.806;2023-03-13T12:48:12;66538.50;;;10.30;100.00
46614;BME280;32338;50.430;6.806;2023-03-13T12:50:54;66535.66;;;10.28;100.00
46614;BME280;32338;50.430;6.806;2023-03-13T12:53:47;66537.38;;;10.29;100.00
46614;BME280;32338;50.430;6.806;2023-03-13T12:59:24;66537.94;;;10.30;100.00
46614;BME280;32338;50.430;6.806;2023-03-13T13:01:54;66547.34;;;10.36;100.00
46614;BME280;32338;50.430;6.806;2023-03-13T13:04:25;66543.41;;;10.40;100.00
46614;BME280;32338;50.430;6.806;2023-03-13T13:06:55;66563.13;;;10.50;100.00
46614;BME280;32338;50.430;6.806;2023-03-13T13:09:25;66572.91;;;10.62;100.00
46614;BME280;32338;50.430;6.806;2023-03-13T13:11:53;66606.13;;;10.92;100.00